Nazar Konovalov

Olheiro - Kaluga
13 Jan 2028
Quinta-feira
Processo

Personalidade

Adaptabilidade (18) Ambição (16) Controvérsia (13) Lealdade (14) Pressão (7) Profissionalismo (15) Espírito Esportivo (2) Temperamento (19)

Perfil

Estilo de Treinamento Democrático
Licença Continental A
Determinação 7
Gestão de Pessoas 4
Motivação 4
Disciplina 3
Satisfação no Trabalho
100%
Fadiga
0%
Função Olheiro
Salário 27.0K p/s
Contrato 14.03.2030

Desempenho

Comportamento Bom
Eficácia do Treinamento
21%
Desenvolvimento do Jogador
15%
Prevenção de Lesões
30%
Implementação Tática
25%

Eventos Recentes

Avaliou um jogador 7d atrás
Participou de uma reunião de recrutamento 7d atrás
Votou contra um alvo de transferência 7d atrás
Avaliou um jogador 7d atrás
Avaliou um jogador 7d atrás
Observou uma partida 7d atrás
Observou uma partida 7d atrás
Observou uma partida 7d atrás

Monitorando agora

96
Jogador Clube Status Habilidade Confiança Observado Última observação Último voto
Eduard Balanovich Lokomotiv Gomel Ativo 81 / 73 40% 2 11.01.2028 -
Marius Kuklys Trakai Ativo 86 / 83 40% 1 06.01.2028 -
Mauricio Asenjo Los Andes Ativo 113 / 114 40% 1 06.01.2028 -
Nikita Kireev Dinamo Vologda Ativo 90 / 73 40% 2 05.01.2028 -
Ignacio Colombini Talleres Ativo 103 / 94 40% 1 05.01.2028 -
Hernán Rivero Patronato Ativo 103 / 105 40% 5 03.01.2028 -
Mauro Valiente Estudiantes Ativo 119 / 102 40% 1 02.01.2028 -
Artur Kozyrev Volna Ativo 98 / 84 40% 1 02.01.2028 -
James Rodrigues Nart Ativo 87 / 74 40% 1 01.01.2028 -
Kirill Stepanov Baltika Rejeitado 74 / 85 67% 1 01.01.2028 Rejeitar
Ignacio Valsangiácomo Racing Ativo 113 / 94 40% 4 31.12.2027 -
Abel Argañaraz Gimnasia y Esgrima Ativo 113 / 91 40% 3 31.12.2027 -
Lucas Urán Arsenal Tula Ativo 98 / 91 40% 1 28.12.2027 -
Gonçalo Encarnação Angusht Ativo 78 / 85 40% 1 28.12.2027 -
Magomed Nasibov Pobeda Ativo 87 / 79 40% 1 26.12.2027 -
Dmitriy Latykhov Bumprom Gomel Ativo 79 / 80 40% 4 25.12.2027 -
Leonel Barrios Talleres Ativo 85 / 101 40% 2 25.12.2027 -
Ilya Verenich Slavia Mozyr Ativo 78 / 85 40% 7 24.12.2027 -
Denis Rubanov Dinamo Stavropol Ativo 94 / 83 40% 2 24.12.2027 -
Ville Nilsson Angusht Ativo 78 / 88 40% 1 20.12.2027 -
Alejandro Quintana Atlanta Ativo 113 / 113 40% 6 19.12.2027 -
Pavel Popov Volna Ativo 77 / 72 40% 1 15.12.2027 -
Soslan Dzarasov Slonim Ativo 73 / 75 40% 2 14.12.2027 -
Ezequiel Aguirre Defensores Ativo 110 / 103 40% 2 14.12.2027 -
Ivan Tolkachev Arsenal Dzerzhinsk Ativo 81 / 96 40% 4 13.12.2027 -
Bruno Nasta San Miguel Ativo 103 / 128 40% 2 13.12.2027 -
Octávio Silva Artigas Ativo 87 / 84 40% 1 12.12.2027 -
Vladislav Chebotar Slutsk Ativo 75 / 91 40% 1 07.12.2027 -
Gustavo Rodriguez Valledupar Ativo 118 / 93 40% 2 06.12.2027 -
Arseniy Zhukovskiy Slonim Ativo 70 / 73 40% 3 04.12.2027 -
Facundo Martínez Montevideo City Torque Ativo 95 / 103 40% 2 01.12.2027 -
Semen Penchuk Baranovichi Ativo 89 / 67 40% 3 29.11.2027 -
Pablo Viudez Rentistas Ativo 101 / 97 40% 1 23.11.2027 -
Iván Fernández Colegiales Ativo 97 / 82 40% 4 21.11.2027 -
Oscar Belinetz Agropecuario Argentino Ativo 111 / 120 40% 1 21.11.2027 -
Eduardo Esterilla Deportes Quindio Ativo 99 / 79 40% 2 18.11.2027 -
Matías Samaniego Talleres Ativo 96 / 95 40% 1 16.11.2027 -
Dmitriy Nizhnik Volna Pinsk Ativo 75 / 76 40% 1 10.11.2027 -
Ilya Tishurov Osipovichi Ativo 85 / 92 40% 4 09.11.2027 -
Owen Falconis Cerrito Ativo 101 / 88 40% 1 09.11.2027 -
Jesús Gamarra Baranovichi Ativo 88 / 92 40% 2 07.11.2027 -
Egor Petrov Slonim Ativo 80 / 66 40% 2 03.11.2027 -
Victorio Ramis Independiente Rivadavia Ativo 114 / 135 40% 1 03.11.2027 -
Ruslan Gogniev Lida Ativo 86 / 89 40% 3 01.11.2027 -
Federico Álvarez Atlanta Ativo 121 / 101 40% 2 28.10.2027 -
Nicolás Ferreyra Gimnasia y Esgrima Ativo 119 / 93 40% 3 27.10.2027 -
Dmitriy Emeljanov Gomel Ativo 84 / 91 40% 5 25.10.2027 -
Aidas Slavickas Utenis Ativo 89 / 76 40% 2 25.10.2027 -
Agustín Rodríguez Colon Ativo 86 / 70 40% 3 24.10.2027 -
Joaquín Avilés Cerrito Ativo 92 / 87 40% 2 22.10.2027 -
Michel Babatunde Levadia Ativo 100 / 90 40% 3 20.10.2027 -
Vladimir Popov Uni-X Labs Ativo 82 / 81 40% 4 14.10.2027 -
Oleg Tyulkov Osipovichi Ativo 66 / 61 40% 2 14.10.2027 -
Felipe Serrés Wanderers Ativo 106 / 94 40% 2 10.10.2027 -
Vladislav Kabachevskiy Smorgon Ativo 89 / 92 40% 2 09.10.2027 -
Nikita Chuyko Lida Ativo 65 / 86 40% 3 03.10.2027 -
Matvey Bazhanov Orsha Ativo 51 / 73 40% 2 27.09.2027 -
Angel Uñates Güemes Ativo 83 / 80 40% 2 26.09.2027 -
Pablo da Silveira Cerro Ativo 75 / 90 40% 1 20.09.2027 -
Muzaffar Gurbanov Dnepr Mogilev Ativo 91 / 90 40% 1 09.09.2027 -
Lucas Delgado San Miguel Ativo 89 / 87 40% 1 06.09.2027 -
Léo Ribeiro Kauno Zalgiris Ativo 108 / 83 40% 1 01.09.2027 -
Egor Yuschenko Volna Pinsk Ativo 73 / 90 40% 2 31.08.2027 -
Francisco Borda Central Norte Ativo 105 / 97 40% 1 30.08.2027 -
Macula Birkirkara Ativo 76 / 103 40% 2 23.08.2027 -
Pavel Klenje Uni-X Labs Ativo 75 / 76 40% 2 22.08.2027 -
Yefim Zenkevich Rodina M Ativo 70 / 46 55% 1 16.08.2027 -
Gleb Soldatenkov Niva Ativo 66 / 75 40% 1 11.08.2027 -
Ignat Kasjanov Volga Ativo 79 / 63 55% 1 02.08.2027 -
Mauricio Lacerda Miramar Misiones Ativo 67 / 96 40% 1 02.08.2027 -
Nahuel Marzochi Colon Ativo 88 / 88 40% 1 25.07.2027 -
Evgeniy Sakuta Volna Pinsk Ativo 79 / 73 40% 1 18.07.2027 -
Chris Long Newport County Ativo 83 / 108 40% 1 16.07.2027 -
Shamil Saaduev Pobeda Ativo 95 / 69 40% 1 15.07.2027 -
Artur Gilyazetdinov Yenisey Ativo 83 / 96 40% 1 15.07.2027 -
Walterson Cittadella Ativo 110 / 99 40% 2 14.07.2027 -
Alexey Skvortsov Metallurg Ativo 75 / 83 40% 1 14.07.2027 -
Nathaniel Méndez-Laing Milton Keynes Dons Ativo 84 / 84 40% 1 14.07.2027 -
Dmitry Ivannikov Chaika Ativo 104 / 96 40% 1 13.07.2027 -
Yaroslav Martynyuk Ryazan Ativo 58 / 81 40% 1 12.07.2027 -
Danil Kapustyanskiy Dinamo Vologda Ativo 74 / 84 40% 1 12.07.2027 -
Murray Wallace Huddersfield Town Ativo 120 / 121 40% 1 10.07.2027 -
Deji Oshilaja Mansfield Town Ativo 107 / 85 40% 1 10.07.2027 -
Rizvan Umarov Dinamo St Petersburg Ativo 85 / 76 40% 1 09.07.2027 -
Timur Kim Arsenal Tula Ativo 71 / 47 40% 1 08.07.2027 -
Evgeny Voronin Volga Ativo 91 / 95 40% 1 07.07.2027 -
Yegor Pankov Luki-Energiya Ativo 60 / 59 40% 1 07.07.2027 -
Alexey Baev Dinamo St Petersburg Ativo 73 / 88 40% 1 06.07.2027 -
Ryan Leonard Millwall Ativo 118 / 124 40% 1 05.07.2027 -
Jake Caprice Oldham Athletic Ativo 88 / 71 40% 1 05.07.2027 -
Anton Betyuzhnov Dinamo Vologda Ativo 89 / 85 40% 1 04.07.2027 -
Yegor Ponomarev Tver Ativo 84 / 85 40% 1 04.07.2027 -
Roman Torosyan Dinamo St Petersburg Ativo 76 / 76 55% 1 25.01.2027 -
Mikhail Kanaev Ativo 57 / 72 55% 1 31.08.2026 -
Agustín Dattola Almirante Brown Ativo 119 / 120 40% 1 02.08.2026 -
Luka Račić Kauno Zalgiris Ativo 98 / 112 40% 1 02.08.2026 -